PWSweather.com
Personal Weather Stations
Station Observations
UXOLA
Alcoy, AlcoyES

AlcoyAlcoyES

Lat: 38.70299, Lon: -0.48184

Elevation: 1935

Station Type: PCE FWS-20,

http://www.fiestasalcoy.xyz

High Low Average
Temperature 52.7°F11.5°C 45.3°F7.4°C 48.5°F9.2°C
Dew Point 46.0°F7.8°C 40.2°F4.6°C 43.0°F6.1°C
Winds 6.0 mph 9.7 kmh Calm Calm 2.0 mph ESE3.2 kmh ESE
Wind Gusts 9.2 mph14.8 kmh 0.7 mph1.1 kmh 5.0 mph8.0 kmh
Humidity 91% 74% 81%
Pressure 30.01 in1016.3 mb 29.90 in1012.5 mb -
Precipitation 0.01 in0.3 mm - -
Hour Temp Dew Point Humidity Winds Wind Gusts Pressure Precip Precip Rate Daily Precip Total
12:00 AM 49.6°F9.8°C 43.4°F6.3°C 79% 6.0 mph E9.7 kmh E 8.3 mph13.4 kmh 30.01 in1016.3 mb 0.00 in0.0 mm 0.00 in0.0 mm 0.00 in0.0 mm
12:15 AM 49.5°F9.7°C 43.2°F6.2°C 79% 2.2 mph NE3.5 kmh NE 8.3 mph13.4 kmh 30.01 in1016.3 mb 0.00 in0.0 mm 0.00 in0.0 mm 0.00 in0.0 mm
12:30 AM 49.5°F9.7°C 42.9°F6.1°C 78% 3.1 mph ENE5.0 kmh ENE 6.0 mph9.7 kmh 30.01 in1016.3 mb 0.00 in0.0 mm 0.00 in0.0 mm 0.00 in0.0 mm
12:45 AM 49.5°F9.7°C 42.2°F5.7°C 76% 4.5 mph ENE7.2 kmh ENE 6.9 mph11.1 kmh 30.00 in1015.9 mb 0.00 in0.0 mm 0.00 in0.0 mm 0.00 in0.0 mm
01:00 AM 49.5°F9.7°C 41.9°F5.5°C 75% 4.5 mph NE7.2 kmh NE 6.0 mph9.7 kmh 30.01 in1016.3 mb 0.00 in0.0 mm 0.00 in0.0 mm 0.00 in0.0 mm
01:15 AM 49.6°F9.8°C 42.0°F5.6°C 75% 2.2 mph NE3.5 kmh NE 5.4 mph8.7 kmh 30.00 in1015.9 mb 0.00 in0.0 mm 0.00 in0.0 mm 0.00 in0.0 mm
01:30 AM 49.5°F9.7°C 41.9°F5.5°C 75% 3.1 mph ENE5.0 kmh ENE 4.5 mph7.2 kmh 30.00 in1015.9 mb 0.00 in0.0 mm 0.00 in0.0 mm 0.00 in0.0 mm
01:45 AM 49.3°F9.6°C 41.7°F5.4°C 75% 2.2 mph NE3.5 kmh NE 5.4 mph8.7 kmh 30.00 in1015.9 mb 0.00 in0.0 mm 0.00 in0.0 mm 0.00 in0.0 mm
02:00 AM 49.3°F9.6°C 42.0°F5.6°C 76% 1.6 mph E2.6 kmh E 3.1 mph5.0 kmh 30.00 in1015.9 mb 0.00 in0.0 mm 0.00 in0.0 mm 0.00 in0.0 mm
02:15 AM 49.1°F9.5°C 41.9°F5.5°C 76% 1.6 mph E2.6 kmh E 3.1 mph5.0 kmh 30.00 in1015.9 mb 0.00 in0.0 mm 0.00 in0.0 mm 0.00 in0.0 mm
02:30 AM 48.9°F9.4°C 41.7°F5.4°C 76% Calm Calm 2.2 mph3.5 kmh 30.00 in1015.9 mb 0.00 in0.0 mm 0.00 in0.0 mm 0.00 in0.0 mm
02:45 AM 48.9°F9.4°C 41.7°F5.4°C 76% 1.6 mph E2.6 kmh E 3.1 mph5.0 kmh 29.99 in1015.6 mb 0.00 in0.0 mm 0.00 in0.0 mm 0.00 in0.0 mm
03:00 AM 48.9°F9.4°C 41.7°F5.4°C 76% 1.6 mph E2.6 kmh E 3.1 mph5.0 kmh 29.99 in1015.6 mb 0.00 in0.0 mm 0.00 in0.0 mm 0.00 in0.0 mm
03:15 AM 48.7°F9.3°C 41.9°F5.5°C 77% 3.8 mph ENE6.1 kmh ENE 5.4 mph8.7 kmh 29.99 in1015.6 mb 0.00 in0.0 mm 0.00 in0.0 mm 0.00 in0.0 mm
03:30 AM 48.7°F9.3°C 42.2°F5.7°C 78% 1.6 mph ENE2.6 kmh ENE 4.5 mph7.2 kmh 29.99 in1015.6 mb 0.00 in0.0 mm 0.00 in0.0 mm 0.00 in0.0 mm
03:45 AM 48.6°F9.2°C 42.4°F5.8°C 79% 3.8 mph E6.1 kmh E 4.5 mph7.2 kmh 29.99 in1015.6 mb 0.00 in0.0 mm 0.00 in0.0 mm 0.00 in0.0 mm
04:00 AM 48.4°F9.1°C 42.2°F5.7°C 79% 1.6 mph E2.6 kmh E 3.8 mph6.1 kmh 29.99 in1015.6 mb 0.00 in0.0 mm 0.00 in0.0 mm 0.00 in0.0 mm
04:15 AM 48.4°F9.1°C 42.5°F5.8°C 80% 3.8 mph ENE6.1 kmh ENE 6.9 mph11.1 kmh 29.99 in1015.6 mb 0.00 in0.0 mm 0.00 in0.0 mm 0.00 in0.0 mm
04:30 AM 48.2°F9.0°C 42.3°F5.7°C 80% 2.2 mph ENE3.5 kmh ENE 3.8 mph6.1 kmh 29.98 in1015.2 mb 0.00 in0.0 mm 0.00 in0.0 mm 0.00 in0.0 mm
04:45 AM 48.2°F9.0°C 42.3°F5.7°C 80% 0.7 mph ENE1.1 kmh ENE 3.1 mph5.0 kmh 29.98 in1015.2 mb 0.00 in0.0 mm 0.00 in0.0 mm 0.00 in0.0 mm
05:00 AM 48.0°F8.9°C 42.2°F5.7°C 80% Calm Calm 1.6 mph2.6 kmh 29.98 in1015.2 mb 0.00 in0.0 mm 0.00 in0.0 mm 0.00 in0.0 mm
05:15 AM 47.7°F8.7°C 41.8°F5.4°C 80% Calm Calm 1.6 mph2.6 kmh 29.98 in1015.2 mb 0.00 in0.0 mm 0.00 in0.0 mm 0.00 in0.0 mm
05:30 AM 47.1°F8.4°C 41.3°F5.2°C 80% 0.7 mph ENE1.1 kmh ENE 1.6 mph2.6 kmh 29.98 in1015.2 mb 0.00 in0.0 mm 0.00 in0.0 mm 0.00 in0.0 mm
05:45 AM 47.1°F8.4°C 41.3°F5.2°C 80% Calm Calm 2.2 mph3.5 kmh 29.98 in1015.2 mb 0.00 in0.0 mm 0.00 in0.0 mm 0.00 in0.0 mm
06:00 AM 47.1°F8.4°C 41.6°F5.3°C 81% 2.2 mph E3.5 kmh E 3.8 mph6.1 kmh 29.98 in1015.2 mb 0.00 in0.0 mm 0.00 in0.0 mm 0.00 in0.0 mm
06:15 AM 47.3°F8.5°C 41.8°F5.4°C 81% 2.2 mph ENE3.5 kmh ENE 5.4 mph8.7 kmh 29.97 in1014.9 mb 0.00 in0.0 mm 0.00 in0.0 mm 0.00 in0.0 mm
06:30 AM 47.5°F8.6°C 42.3°F5.7°C 82% 5.4 mph NE8.7 kmh NE 6.9 mph11.1 kmh 29.97 in1014.9 mb 0.00 in0.0 mm 0.00 in0.0 mm 0.00 in0.0 mm
06:45 AM 47.3°F8.5°C 42.1°F5.6°C 82% 5.4 mph ENE8.7 kmh ENE 7.6 mph12.2 kmh 29.98 in1015.2 mb 0.00 in0.0 mm 0.00 in0.0 mm 0.00 in0.0 mm
07:00 AM 46.9°F8.3°C 42.1°F5.6°C 83% 3.1 mph E5.0 kmh E 6.0 mph9.7 kmh 29.98 in1015.2 mb 0.00 in0.0 mm 0.00 in0.0 mm 0.00 in0.0 mm
07:15 AM 46.8°F8.2°C 42.2°F5.7°C 84% 2.2 mph NE3.5 kmh NE 3.8 mph6.1 kmh 29.98 in1015.2 mb 0.00 in0.0 mm 0.00 in0.0 mm 0.00 in0.0 mm
07:30 AM 46.9°F8.3°C 42.4°F5.8°C 84% 2.2 mph ENE3.5 kmh ENE 3.1 mph5.0 kmh 29.98 in1015.2 mb 0.00 in0.0 mm 0.00 in0.0 mm 0.00 in0.0 mm
07:45 AM 46.8°F8.2°C 42.2°F5.7°C 84% 2.2 mph ENE3.5 kmh ENE 3.8 mph6.1 kmh 29.98 in1015.2 mb 0.00 in0.0 mm 0.00 in0.0 mm 0.00 in0.0 mm
08:00 AM 46.9°F8.3°C 42.4°F5.8°C 84% 1.6 mph E2.6 kmh E 3.1 mph5.0 kmh 29.98 in1015.2 mb 0.00 in0.0 mm 0.00 in0.0 mm 0.00 in0.0 mm
08:15 AM 46.9°F8.3°C 42.4°F5.8°C 84% 1.6 mph ENE2.6 kmh ENE 2.2 mph3.5 kmh 29.98 in1015.2 mb 0.00 in0.0 mm 0.00 in0.0 mm 0.00 in0.0 mm
08:30 AM 46.9°F8.3°C 42.4°F5.8°C 84% 0.7 mph E1.1 kmh E 3.1 mph5.0 kmh 29.99 in1015.6 mb 0.00 in0.0 mm 0.00 in0.0 mm 0.00 in0.0 mm
08:45 AM 46.8°F8.2°C 42.5°F5.8°C 85% 1.6 mph E2.6 kmh E 3.8 mph6.1 kmh 29.99 in1015.6 mb 0.00 in0.0 mm 0.00 in0.0 mm 0.00 in0.0 mm
09:00 AM 46.8°F8.2°C 42.8°F6.0°C 86% 0.7 mph E1.1 kmh E 3.1 mph5.0 kmh 29.99 in1015.6 mb 0.00 in0.0 mm 0.00 in0.0 mm 0.00 in0.0 mm
09:15 AM 46.6°F8.1°C 42.9°F6.1°C 87% 0.7 mph ENE1.1 kmh ENE 2.2 mph3.5 kmh 29.99 in1015.6 mb 0.00 in0.0 mm 0.00 in0.0 mm 0.00 in0.0 mm
09:30 AM 46.6°F8.1°C 43.2°F6.2°C 88% Calm Calm 2.2 mph3.5 kmh 29.99 in1015.6 mb 0.00 in0.0 mm 0.00 in0.0 mm 0.00 in0.0 mm
09:45 AM 46.8°F8.2°C 44.0°F6.7°C 90% 0.7 mph E1.1 kmh E 2.2 mph3.5 kmh 29.99 in1015.6 mb 0.00 in0.0 mm 0.00 in0.0 mm 0.00 in0.0 mm
10:00 AM 46.9°F8.3°C 44.2°F6.8°C 90% 1.6 mph ENE2.6 kmh ENE 3.1 mph5.0 kmh 29.99 in1015.6 mb 0.00 in0.0 mm 0.00 in0.0 mm 0.00 in0.0 mm
10:15 AM 47.1°F8.4°C 44.3°F6.8°C 90% 2.2 mph E3.5 kmh E 4.5 mph7.2 kmh 29.99 in1015.6 mb 0.00 in0.0 mm 0.00 in0.0 mm 0.00 in0.0 mm
10:30 AM 47.1°F8.4°C 44.6°F7.0°C 91% 3.8 mph ENE6.1 kmh ENE 5.4 mph8.7 kmh 29.99 in1015.6 mb 0.00 in0.0 mm 0.00 in0.0 mm 0.00 in0.0 mm
10:45 AM 47.1°F8.4°C 44.6°F7.0°C 91% 3.1 mph ENE5.0 kmh ENE 6.9 mph11.1 kmh 29.99 in1015.6 mb 0.00 in0.0 mm 0.00 in0.0 mm 0.00 in0.0 mm
11:00 AM 47.3°F8.5°C 44.8°F7.1°C 91% 3.8 mph ENE6.1 kmh ENE 6.0 mph9.7 kmh 29.99 in1015.6 mb 0.00 in0.0 mm 0.00 in0.0 mm 0.00 in0.0 mm
11:15 AM 47.5°F8.6°C 45.0°F7.2°C 91% 2.2 mph ENE3.5 kmh ENE 5.4 mph8.7 kmh 29.99 in1015.6 mb 0.00 in0.0 mm 0.00 in0.0 mm 0.00 in0.0 mm
11:30 AM 48.4°F9.1°C 45.6°F7.6°C 90% 3.1 mph ENE5.0 kmh ENE 5.4 mph8.7 kmh 29.99 in1015.6 mb 0.00 in0.0 mm 0.00 in0.0 mm 0.00 in0.0 mm
11:45 AM 49.1°F9.5°C 46.0°F7.8°C 89% 2.2 mph E3.5 kmh E 5.4 mph8.7 kmh 29.98 in1015.2 mb 0.00 in0.0 mm 0.00 in0.0 mm 0.00 in0.0 mm
12:00 PM 49.5°F9.7°C 45.1°F7.3°C 85% 2.2 mph E3.5 kmh E 4.5 mph7.2 kmh 29.98 in1015.2 mb 0.00 in0.0 mm 0.00 in0.0 mm 0.00 in0.0 mm
12:15 PM 49.8°F9.9°C 44.9°F7.2°C 83% 2.2 mph E3.5 kmh E 4.5 mph7.2 kmh 29.98 in1015.2 mb 0.00 in0.0 mm 0.00 in0.0 mm 0.00 in0.0 mm
12:30 PM 50.2°F10.1°C 44.9°F7.2°C 82% 3.1 mph ENE5.0 kmh ENE 5.4 mph8.7 kmh 29.97 in1014.9 mb 0.00 in0.0 mm 0.00 in0.0 mm 0.00 in0.0 mm
12:45 PM 51.1°F10.6°C 45.5°F7.5°C 81% 1.6 mph ENE2.6 kmh ENE 5.4 mph8.7 kmh 29.97 in1014.9 mb 0.00 in0.0 mm 0.00 in0.0 mm 0.00 in0.0 mm
01:00 PM 52.3°F11.3°C 45.7°F7.6°C 78% 6.0 mph E9.7 kmh E 7.6 mph12.2 kmh 29.96 in1014.6 mb 0.00 in0.0 mm 0.00 in0.0 mm 0.00 in0.0 mm
01:15 PM 52.7°F11.5°C 45.4°F7.4°C 76% 2.2 mph E3.5 kmh E 7.6 mph12.2 kmh 29.95 in1014.2 mb 0.00 in0.0 mm 0.00 in0.0 mm 0.00 in0.0 mm
01:30 PM 52.3°F11.3°C 44.3°F6.8°C 74% 4.5 mph E7.2 kmh E 6.0 mph9.7 kmh 29.95 in1014.2 mb 0.00 in0.0 mm 0.00 in0.0 mm 0.00 in0.0 mm
01:45 PM 51.8°F11.0°C 44.1°F6.7°C 75% 2.2 mph ENE3.5 kmh ENE 6.0 mph9.7 kmh 29.94 in1013.9 mb 0.00 in0.0 mm 0.00 in0.0 mm 0.00 in0.0 mm
02:00 PM 51.8°F11.0°C 44.1°F6.7°C 75% 1.6 mph E2.6 kmh E 5.4 mph8.7 kmh 29.94 in1013.9 mb 0.00 in0.0 mm 0.00 in0.0 mm 0.00 in0.0 mm
02:15 PM 51.1°F10.6°C 43.1°F6.2°C 74% 4.5 mph ENE7.2 kmh ENE 6.9 mph11.1 kmh 29.93 in1013.5 mb 0.00 in0.0 mm 0.00 in0.0 mm 0.00 in0.0 mm
02:30 PM 51.1°F10.6°C 43.8°F6.6°C 76% 4.5 mph E7.2 kmh E 6.0 mph9.7 kmh 29.93 in1013.5 mb 0.00 in0.0 mm 0.00 in0.0 mm 0.00 in0.0 mm
02:45 PM 51.3°F10.7°C 44.0°F6.7°C 76% 3.8 mph E6.1 kmh E 5.4 mph8.7 kmh 29.93 in1013.5 mb 0.00 in0.0 mm 0.00 in0.0 mm 0.00 in0.0 mm
03:00 PM 51.1°F10.6°C 43.8°F6.6°C 76% 2.2 mph E3.5 kmh E 5.4 mph8.7 kmh 29.93 in1013.5 mb 0.00 in0.0 mm 0.00 in0.0 mm 0.00 in0.0 mm
03:15 PM 51.1°F10.6°C 43.8°F6.6°C 76% 2.2 mph NE3.5 kmh NE 5.4 mph8.7 kmh 29.92 in1013.2 mb 0.00 in0.0 mm 0.00 in0.0 mm 0.00 in0.0 mm
03:30 PM 50.9°F10.5°C 44.3°F6.8°C 78% 0.7 mph E1.1 kmh E 3.1 mph5.0 kmh 29.92 in1013.2 mb 0.00 in0.0 mm 0.00 in0.0 mm 0.00 in0.0 mm
03:45 PM 50.2°F10.1°C 44.3°F6.8°C 80% 1.6 mph E2.6 kmh E 3.8 mph6.1 kmh 29.92 in1013.2 mb 0.01 in0.3 mm 0.04 in1.0 mm 0.01 in0.3 mm
04:00 PM 49.8°F9.9°C 44.6°F7.0°C 82% 1.6 mph E2.6 kmh E 3.1 mph5.0 kmh 29.92 in1013.2 mb 0.01 in0.3 mm 0.00 in0.0 mm 0.01 in0.3 mm
04:15 PM 49.6°F9.8°C 44.7°F7.1°C 83% 2.2 mph E3.5 kmh E 3.1 mph5.0 kmh 29.91 in1012.9 mb 0.01 in0.3 mm 0.00 in0.0 mm 0.01 in0.3 mm
04:30 PM 49.6°F9.8°C 44.7°F7.1°C 83% 0.7 mph E1.1 kmh E 2.2 mph3.5 kmh 29.92 in1013.2 mb 0.01 in0.3 mm 0.00 in0.0 mm 0.01 in0.3 mm
04:45 PM 49.6°F9.8°C 44.7°F7.1°C 83% 0.7 mph E1.1 kmh E 3.1 mph5.0 kmh 29.91 in1012.9 mb 0.00 in0.0 mm 0.00 in0.0 mm 0.01 in0.3 mm
05:00 PM 49.6°F9.8°C 44.7°F7.1°C 83% 3.1 mph ENE5.0 kmh ENE 4.5 mph7.2 kmh 29.91 in1012.9 mb 0.00 in0.0 mm 0.00 in0.0 mm 0.01 in0.3 mm
05:15 PM 49.6°F9.8°C 44.4°F6.9°C 82% 0.7 mph NE1.1 kmh NE 3.8 mph6.1 kmh 29.91 in1012.9 mb 0.00 in0.0 mm 0.00 in0.0 mm 0.01 in0.3 mm
05:30 PM 49.8°F9.9°C 44.9°F7.2°C 83% 1.6 mph SW2.6 kmh SW 3.8 mph6.1 kmh 29.91 in1012.9 mb 0.00 in0.0 mm 0.00 in0.0 mm 0.01 in0.3 mm
05:45 PM 49.3°F9.6°C 44.0°F6.7°C 82% 1.6 mph S2.6 kmh S 6.0 mph9.7 kmh 29.91 in1012.9 mb 0.00 in0.0 mm 0.00 in0.0 mm 0.01 in0.3 mm
06:00 PM 49.1°F9.5°C 43.8°F6.6°C 82% Calm Calm 4.5 mph7.2 kmh 29.91 in1012.9 mb 0.00 in0.0 mm 0.00 in0.0 mm 0.01 in0.3 mm
06:15 PM 49.1°F9.5°C 43.5°F6.4°C 81% Calm Calm 2.2 mph3.5 kmh 29.91 in1012.9 mb 0.00 in0.0 mm 0.00 in0.0 mm 0.01 in0.3 mm
06:30 PM 49.1°F9.5°C 43.5°F6.4°C 81% Calm Calm 1.6 mph2.6 kmh 29.91 in1012.9 mb 0.00 in0.0 mm 0.00 in0.0 mm 0.01 in0.3 mm
06:45 PM 49.1°F9.5°C 43.8°F6.6°C 82% Calm Calm 0.7 mph1.1 kmh 29.91 in1012.9 mb 0.00 in0.0 mm 0.00 in0.0 mm 0.01 in0.3 mm
07:00 PM 48.9°F9.4°C 43.7°F6.5°C 82% 0.7 mph ENE1.1 kmh ENE 2.2 mph3.5 kmh 29.91 in1012.9 mb 0.00 in0.0 mm 0.00 in0.0 mm 0.01 in0.3 mm
07:15 PM 48.7°F9.3°C 43.8°F6.6°C 83% Calm Calm 1.6 mph2.6 kmh 29.92 in1013.2 mb 0.00 in0.0 mm 0.00 in0.0 mm 0.01 in0.3 mm
07:30 PM 48.6°F9.2°C 43.6°F6.4°C 83% 0.7 mph SW1.1 kmh SW 1.6 mph2.6 kmh 29.92 in1013.2 mb 0.00 in0.0 mm 0.00 in0.0 mm 0.01 in0.3 mm
07:45 PM 48.6°F9.2°C 43.6°F6.4°C 83% 1.6 mph WSW2.6 kmh WSW 4.5 mph7.2 kmh 29.91 in1012.9 mb 0.00 in0.0 mm 0.00 in0.0 mm 0.01 in0.3 mm
08:00 PM 48.4°F9.1°C 43.1°F6.2°C 82% 3.8 mph WSW6.1 kmh WSW 5.4 mph8.7 kmh 29.92 in1013.2 mb 0.00 in0.0 mm 0.00 in0.0 mm 0.01 in0.3 mm
08:15 PM 48.2°F9.0°C 42.6°F5.9°C 81% 2.2 mph SW3.5 kmh SW 5.4 mph8.7 kmh 29.92 in1013.2 mb 0.00 in0.0 mm 0.00 in0.0 mm 0.01 in0.3 mm
08:30 PM 48.0°F8.9°C 42.5°F5.8°C 81% 3.1 mph WSW5.0 kmh WSW 5.4 mph8.7 kmh 29.92 in1013.2 mb 0.00 in0.0 mm 0.00 in0.0 mm 0.01 in0.3 mm
08:45 PM 47.7°F8.7°C 42.1°F5.6°C 81% 1.6 mph SW2.6 kmh SW 5.4 mph8.7 kmh 29.92 in1013.2 mb 0.00 in0.0 mm 0.00 in0.0 mm 0.01 in0.3 mm
09:00 PM 47.3°F8.5°C 42.1°F5.6°C 82% 2.2 mph SW3.5 kmh SW 4.5 mph7.2 kmh 29.92 in1013.2 mb 0.00 in0.0 mm 0.00 in0.0 mm 0.01 in0.3 mm
09:15 PM 47.1°F8.4°C 41.9°F5.5°C 82% 3.8 mph WSW6.1 kmh WSW 9.2 mph14.8 kmh 29.93 in1013.5 mb 0.00 in0.0 mm 0.00 in0.0 mm 0.01 in0.3 mm
09:30 PM 47.1°F8.4°C 41.9°F5.5°C 82% 3.8 mph SW6.1 kmh SW 9.2 mph14.8 kmh 29.92 in1013.2 mb 0.00 in0.0 mm 0.00 in0.0 mm 0.01 in0.3 mm
09:45 PM 46.9°F8.3°C 41.7°F5.4°C 82% 0.7 mph E1.1 kmh E 2.2 mph3.5 kmh 29.93 in1013.5 mb 0.00 in0.0 mm 0.00 in0.0 mm 0.01 in0.3 mm
10:00 PM 46.8°F8.2°C 41.6°F5.3°C 82% 4.5 mph WSW7.2 kmh WSW 6.9 mph11.1 kmh 29.92 in1013.2 mb 0.00 in0.0 mm 0.00 in0.0 mm 0.01 in0.3 mm
10:15 PM 46.8°F8.2°C 41.6°F5.3°C 82% 0.7 mph SW1.1 kmh SW 5.4 mph8.7 kmh 29.92 in1013.2 mb 0.00 in0.0 mm 0.00 in0.0 mm 0.01 in0.3 mm
10:30 PM 46.6°F8.1°C 41.4°F5.2°C 82% Calm Calm 3.8 mph6.1 kmh 29.91 in1012.9 mb 0.00 in0.0 mm 0.00 in0.0 mm 0.01 in0.3 mm
10:45 PM 46.4°F8.0°C 41.2°F5.1°C 82% 2.2 mph W3.5 kmh W 8.3 mph13.4 kmh 29.92 in1013.2 mb 0.00 in0.0 mm 0.00 in0.0 mm 0.01 in0.3 mm
11:00 PM 46.6°F8.1°C 41.4°F5.2°C 82% 2.2 mph W3.5 kmh W 3.8 mph6.1 kmh 29.91 in1012.9 mb 0.00 in0.0 mm 0.00 in0.0 mm 0.01 in0.3 mm
11:15 PM 46.2°F7.9°C 40.7°F4.8°C 81% 0.7 mph WSW1.1 kmh WSW 3.8 mph6.1 kmh 29.91 in1012.9 mb 0.00 in0.0 mm 0.00 in0.0 mm 0.01 in0.3 mm
11:30 PM 45.7°F7.6°C 40.2°F4.6°C 81% 2.2 mph WSW3.5 kmh WSW 3.8 mph6.1 kmh 29.91 in1012.9 mb 0.00 in0.0 mm 0.00 in0.0 mm 0.01 in0.3 mm
11:45 PM 45.3°F7.4°C 40.2°F4.6°C 82% Calm Calm 5.4 mph8.7 kmh 29.90 in1012.5 mb 0.00 in0.0 mm 0.00 in0.0 mm 0.01 in0.3 mm